sensor_id;sensor_type;location;lat;lon;timestamp;temperature;humidity
24035;DHT22;12242;50.952;4.678;2023-04-25T00:01:48;9.80;99.90
24035;DHT22;12242;50.952;4.678;2023-04-25T00:04:15;9.80;99.90
24035;DHT22;12242;50.952;4.678;2023-04-25T00:06:44;9.90;99.90
24035;DHT22;12242;50.952;4.678;2023-04-25T00:09:11;9.90;99.90
24035;DHT22;12242;50.952;4.678;2023-04-25T00:11:40;10.00;99.90
24035;DHT22;12242;50.952;4.678;2023-04-25T00:14:08;10.10;99.90
24035;DHT22;12242;50.952;4.678;2023-04-25T00:16:35;10.10;99.90
24035;DHT22;12242;50.952;4.678;2023-04-25T00:19:03;10.10;99.90
24035;DHT22;12242;50.952;4.678;2023-04-25T00:21:30;10.10;99.90
24035;DHT22;12242;50.952;4.678;2023-04-25T00:23:59;10.20;99.90
24035;DHT22;12242;50.952;4.678;2023-04-25T00:26:27;10.20;99.90
24035;DHT22;12242;50.952;4.678;2023-04-25T00:28:55;10.20;99.90
24035;DHT22;12242;50.952;4.678;2023-04-25T00:31:23;10.00;99.90
24035;DHT22;12242;50.952;4.678;2023-04-25T00:33:50;9.40;99.90
24035;DHT22;12242;50.952;4.678;2023-04-25T00:36:18;9.50;99.90
24035;DHT22;12242;50.952;4.678;2023-04-25T00:38:47;9.70;99.90
24035;DHT22;12242;50.952;4.678;2023-04-25T00:41:15;9.90;99.90
24035;DHT22;12242;50.952;4.678;2023-04-25T00:43:43;10.20;99.90
24035;DHT22;12242;50.952;4.678;2023-04-25T00:46:11;10.20;99.90
24035;DHT22;12242;50.952;4.678;2023-04-25T00:48:39;10.30;99.90
24035;DHT22;12242;50.952;4.678;2023-04-25T00:51:07;10.20;99.90
24035;DHT22;12242;50.952;4.678;2023-04-25T00:53:34;10.20;99.90
24035;DHT22;12242;50.952;4.678;2023-04-25T00:56:02;10.30;99.90
24035;DHT22;12242;50.952;4.678;2023-04-25T00:58:29;10.20;99.90
24035;DHT22;12242;50.952;4.678;2023-04-25T01:00:57;10.20;99.90
24035;DHT22;12242;50.952;4.678;2023-04-25T01:03:25;10.20;99.90
24035;DHT22;12242;50.952;4.678;2023-04-25T01:05:56;10.10;99.90
24035;DHT22;12242;50.952;4.678;2023-04-25T01:08:24;10.10;99.90
24035;DHT22;12242;50.952;4.678;2023-04-25T01:10:54;10.10;99.90
24035;DHT22;12242;50.952;4.678;2023-04-25T01:13:22;10.10;99.90
24035;DHT22;12242;50.952;4.678;2023-04-25T01:15:49;10.10;99.90
24035;DHT22;12242;50.952;4.678;2023-04-25T01:18:19;10.00;99.90
24035;DHT22;12242;50.952;4.678;2023-04-25T01:20:51;10.00;99.90
24035;DHT22;12242;50.952;4.678;2023-04-25T01:23:20;9.90;99.90
24035;DHT22;12242;50.952;4.678;2023-04-25T01:25:49;9.90;99.90
24035;DHT22;12242;50.952;4.678;2023-04-25T01:28:18;9.80;99.90
24035;DHT22;12242;50.952;4.678;2023-04-25T01:30:46;9.80;99.90
24035;DHT22;12242;50.952;4.678;2023-04-25T01:33:15;9.70;99.90
24035;DHT22;12242;50.952;4.678;2023-04-25T01:35:43;9.50;99.90
24035;DHT22;12242;50.952;4.678;2023-04-25T01:38:12;9.40;99.90
24035;DHT22;12242;50.952;4.678;2023-04-25T01:40:40;9.30;99.90
24035;DHT22;12242;50.952;4.678;2023-04-25T01:43:08;9.20;99.90
24035;DHT22;12242;50.952;4.678;2023-04-25T01:45:38;9.20;99.90
24035;DHT22;12242;50.952;4.678;2023-04-25T01:48:09;9.20;99.90
24035;DHT22;12242;50.952;4.678;2023-04-25T01:50:38;9.20;99.90
24035;DHT22;12242;50.952;4.678;2023-04-25T01:53:07;9.20;99.90
24035;DHT22;12242;50.952;4.678;2023-04-25T01:55:36;9.10;99.90
24035;DHT22;12242;50.952;4.678;2023-04-25T01:58:04;9.10;99.90
24035;DHT22;12242;50.952;4.678;2023-04-25T02:00:36;9.10;99.90
24035;DHT22;12242;50.952;4.678;2023-04-25T02:03:06;9.10;99.90
24035;DHT22;12242;50.952;4.678;2023-04-25T02:05:35;9.00;99.90
24035;DHT22;12242;50.952;4.678;2023-04-25T02:08:07;9.00;99.90
24035;DHT22;12242;50.952;4.678;2023-04-25T02:10:36;8.90;99.90
24035;DHT22;12242;50.952;4.678;2023-04-25T02:13:04;8.90;99.90
24035;DHT22;12242;50.952;4.678;2023-04-25T02:15:32;9.00;99.90
24035;DHT22;12242;50.952;4.678;2023-04-25T02:18:00;9.00;99.90
24035;DHT22;12242;50.952;4.678;2023-04-25T02:20:29;9.00;99.90
24035;DHT22;12242;50.952;4.678;2023-04-25T02:22:57;9.00;99.90
24035;DHT22;12242;50.952;4.678;2023-04-25T02:25:25;9.00;99.90
24035;DHT22;12242;50.952;4.678;2023-04-25T02:27:52;8.90;99.90
24035;DHT22;12242;50.952;4.678;2023-04-25T02:30:20;9.00;99.90
24035;DHT22;12242;50.952;4.678;2023-04-25T02:32:47;8.90;99.90
24035;DHT22;12242;50.952;4.678;2023-04-25T02:35:15;8.80;99.90
24035;DHT22;12242;50.952;4.678;2023-04-25T02:37:42;8.80;99.90
24035;DHT22;12242;50.952;4.678;2023-04-25T02:40:10;8.90;99.90
24035;DHT22;12242;50.952;4.678;2023-04-25T02:42:38;8.90;99.90
24035;DHT22;12242;50.952;4.678;2023-04-25T02:45:07;9.00;99.90
24035;DHT22;12242;50.952;4.678;2023-04-25T02:47:36;9.00;99.90
24035;DHT22;12242;50.952;4.678;2023-04-25T02:50:04;9.00;99.90
24035;DHT22;12242;50.952;4.678;2023-04-25T02:52:32;9.10;99.90
24035;DHT22;12242;50.952;4.678;2023-04-25T02:54:59;9.00;99.90
24035;DHT22;12242;50.952;4.678;2023-04-25T02:57:27;9.10;99.90
24035;DHT22;12242;50.952;4.678;2023-04-25T02:59:54;9.00;99.90
24035;DHT22;12242;50.952;4.678;2023-04-25T03:02:22;9.00;99.90
24035;DHT22;12242;50.952;4.678;2023-04-25T03:04:50;9.00;99.90
24035;DHT22;12242;50.952;4.678;2023-04-25T03:07:17;9.00;99.90
24035;DHT22;12242;50.952;4.678;2023-04-25T03:09:45;8.90;99.90
24035;DHT22;12242;50.952;4.678;2023-04-25T03:12:12;8.90;99.90
24035;DHT22;12242;50.952;4.678;2023-04-25T03:14:40;8.90;99.90
24035;DHT22;12242;50.952;4.678;2023-04-25T03:17:08;8.90;99.90
24035;DHT22;12242;50.952;4.678;2023-04-25T03:19:35;8.80;99.90
24035;DHT22;12242;50.952;4.678;2023-04-25T03:22:03;8.70;99.90
24035;DHT22;12242;50.952;4.678;2023-04-25T03:24:30;8.60;99.90
24035;DHT22;12242;50.952;4.678;2023-04-25T03:26:58;8.40;99.90
24035;DHT22;12242;50.952;4.678;2023-04-25T03:29:26;8.20;99.90
24035;DHT22;12242;50.952;4.678;2023-04-25T03:31:54;8.10;99.90
24035;DHT22;12242;50.952;4.678;2023-04-25T03:34:22;8.10;99.90
24035;DHT22;12242;50.952;4.678;2023-04-25T03:36:51;8.00;99.90
24035;DHT22;12242;50.952;4.678;2023-04-25T03:39:18;8.00;99.90
24035;DHT22;12242;50.952;4.678;2023-04-25T03:41:46;7.90;99.90
24035;DHT22;12242;50.952;4.678;2023-04-25T03:44:14;7.80;99.90
24035;DHT22;12242;50.952;4.678;2023-04-25T03:46:41;7.80;99.90
24035;DHT22;12242;50.952;4.678;2023-04-25T03:49:09;7.70;99.90
24035;DHT22;12242;50.952;4.678;2023-04-25T03:51:36;7.60;99.90
24035;DHT22;12242;50.952;4.678;2023-04-25T03:54:04;7.60;99.90
24035;DHT22;12242;50.952;4.678;2023-04-25T03:56:32;7.70;99.90
24035;DHT22;12242;50.952;4.678;2023-04-25T03:58:59;7.80;99.90
24035;DHT22;12242;50.952;4.678;2023-04-25T04:01:27;7.80;99.90
24035;DHT22;12242;50.952;4.678;2023-04-25T04:03:54;7.80;99.90
24035;DHT22;12242;50.952;4.678;2023-04-25T04:06:23;7.80;99.90
24035;DHT22;12242;50.952;4.678;2023-04-25T04:08:51;8.00;99.90
24035;DHT22;12242;50.952;4.678;2023-04-25T04:11:18;8.10;99.90
24035;DHT22;12242;50.952;4.678;2023-04-25T04:13:46;8.20;99.90
24035;DHT22;12242;50.952;4.678;2023-04-25T04:16:13;8.40;99.90
24035;DHT22;12242;50.952;4.678;2023-04-25T04:18:41;8.60;99.90
24035;DHT22;12242;50.952;4.678;2023-04-25T04:21:09;8.70;99.90
24035;DHT22;12242;50.952;4.678;2023-04-25T04:23:36;8.80;99.90
24035;DHT22;12242;50.952;4.678;2023-04-25T04:26:06;8.90;99.90
24035;DHT22;12242;50.952;4.678;2023-04-25T04:28:34;8.80;99.90
24035;DHT22;12242;50.952;4.678;2023-04-25T04:31:03;8.90;99.90
24035;DHT22;12242;50.952;4.678;2023-04-25T04:33:31;8.90;99.90
24035;DHT22;12242;50.952;4.678;2023-04-25T04:35:58;9.00;99.90
24035;DHT22;12242;50.952;4.678;2023-04-25T04:38:26;9.10;99.90
24035;DHT22;12242;50.952;4.678;2023-04-25T04:40:53;9.20;99.90
24035;DHT22;12242;50.952;4.678;2023-04-25T04:43:21;9.20;99.90
24035;DHT22;12242;50.952;4.678;2023-04-25T04:45:50;9.30;99.90
24035;DHT22;12242;50.952;4.678;2023-04-25T04:48:17;9.30;99.90
24035;DHT22;12242;50.952;4.678;2023-04-25T04:50:45;9.40;99.90
24035;DHT22;12242;50.952;4.678;2023-04-25T04:53:13;9.30;99.90
24035;DHT22;12242;50.952;4.678;2023-04-25T04:55:40;9.10;99.90
24035;DHT22;12242;50.952;4.678;2023-04-25T04:58:08;9.10;99.90
24035;DHT22;12242;50.952;4.678;2023-04-25T05:00:36;9.30;99.90
24035;DHT22;12242;50.952;4.678;2023-04-25T05:03:03;9.20;99.90
24035;DHT22;12242;50.952;4.678;2023-04-25T05:05:33;9.30;99.90
24035;DHT22;12242;50.952;4.678;2023-04-25T05:08:00;9.20;99.90
24035;DHT22;12242;50.952;4.678;2023-04-25T05:10:28;9.10;99.90
24035;DHT22;12242;50.952;4.678;2023-04-25T05:12:55;9.10;99.90
24035;DHT22;12242;50.952;4.678;2023-04-25T05:15:23;9.10;99.90
24035;DHT22;12242;50.952;4.678;2023-04-25T05:17:50;9.00;99.90
24035;DHT22;12242;50.952;4.678;2023-04-25T05:20:18;8.80;99.90
24035;DHT22;12242;50.952;4.678;2023-04-25T05:22:46;8.70;99.90
24035;DHT22;12242;50.952;4.678;2023-04-25T05:25:13;8.50;99.90
24035;DHT22;12242;50.952;4.678;2023-04-25T05:27:41;8.50;99.90
24035;DHT22;12242;50.952;4.678;2023-04-25T05:30:09;8.50;99.90
24035;DHT22;12242;50.952;4.678;2023-04-25T05:32:38;8.50;99.90
24035;DHT22;12242;50.952;4.678;2023-04-25T05:35:06;8.60;99.90
24035;DHT22;12242;50.952;4.678;2023-04-25T05:37:34;8.60;99.90
24035;DHT22;12242;50.952;4.678;2023-04-25T05:40:02;8.70;99.90
24035;DHT22;12242;50.952;4.678;2023-04-25T05:42:34;8.70;99.90
24035;DHT22;12242;50.952;4.678;2023-04-25T05:45:01;8.60;99.90
24035;DHT22;12242;50.952;4.678;2023-04-25T05:47:29;8.70;99.90
24035;DHT22;12242;50.952;4.678;2023-04-25T05:49:57;8.80;99.90
24035;DHT22;12242;50.952;4.678;2023-04-25T05:52:24;9.00;99.90
24035;DHT22;12242;50.952;4.678;2023-04-25T05:54:52;9.20;99.90
24035;DHT22;12242;50.952;4.678;2023-04-25T05:57:21;9.30;99.90
24035;DHT22;12242;50.952;4.678;2023-04-25T05:59:50;9.50;99.90
24035;DHT22;12242;50.952;4.678;2023-04-25T06:02:21;9.60;99.90
24035;DHT22;12242;50.952;4.678;2023-04-25T06:04:50;9.80;99.90
24035;DHT22;12242;50.952;4.678;2023-04-25T06:07:19;10.00;99.90
24035;DHT22;12242;50.952;4.678;2023-04-25T06:09:47;10.30;99.90
24035;DHT22;12242;50.952;4.678;2023-04-25T06:12:15;10.20;99.90
24035;DHT22;12242;50.952;4.678;2023-04-25T06:14:43;10.20;99.90
24035;DHT22;12242;50.952;4.678;2023-04-25T06:17:10;10.50;99.90
24035;DHT22;12242;50.952;4.678;2023-04-25T06:19:38;10.80;99.90
24035;DHT22;12242;50.952;4.678;2023-04-25T06:22:06;10.90;99.90
24035;DHT22;12242;50.952;4.678;2023-04-25T06:24:34;10.90;99.90
24035;DHT22;12242;50.952;4.678;2023-04-25T06:27:02;10.80;99.90
24035;DHT22;12242;50.952;4.678;2023-04-25T06:29:30;10.70;99.90
24035;DHT22;12242;50.952;4.678;2023-04-25T06:31:57;10.50;99.90
24035;DHT22;12242;50.952;4.678;2023-04-25T06:34:25;10.30;99.90
24035;DHT22;12242;50.952;4.678;2023-04-25T06:36:53;10.20;99.90
24035;DHT22;12242;50.952;4.678;2023-04-25T06:39:20;10.30;99.90
24035;DHT22;12242;50.952;4.678;2023-04-25T06:41:50;10.30;99.90
24035;DHT22;12242;50.952;4.678;2023-04-25T06:44:21;10.20;99.90
24035;DHT22;12242;50.952;4.678;2023-04-25T06:46:50;10.10;99.90
24035;DHT22;12242;50.952;4.678;2023-04-25T06:49:18;10.20;99.90
24035;DHT22;12242;50.952;4.678;2023-04-25T06:51:45;10.30;99.90
24035;DHT22;12242;50.952;4.678;2023-04-25T06:54:13;10.40;99.90
24035;DHT22;12242;50.952;4.678;2023-04-25T06:56:40;10.40;99.90
24035;DHT22;12242;50.952;4.678;2023-04-25T06:59:08;10.10;99.90
24035;DHT22;12242;50.952;4.678;2023-04-25T07:01:36;10.00;99.90
24035;DHT22;12242;50.952;4.678;2023-04-25T07:04:04;9.80;99.90
24035;DHT22;12242;50.952;4.678;2023-04-25T07:06:32;9.70;99.90
24035;DHT22;12242;50.952;4.678;2023-04-25T07:09:00;9.80;99.90
24035;DHT22;12242;50.952;4.678;2023-04-25T07:11:27;9.90;99.90
24035;DHT22;12242;50.952;4.678;2023-04-25T07:13:55;9.90;99.90
24035;DHT22;12242;50.952;4.678;2023-04-25T07:16:22;10.00;99.90
24035;DHT22;12242;50.952;4.678;2023-04-25T07:18:50;10.20;99.90
24035;DHT22;12242;50.952;4.678;2023-04-25T07:21:18;10.40;99.90
24035;DHT22;12242;50.952;4.678;2023-04-25T07:23:45;10.70;99.90
24035;DHT22;12242;50.952;4.678;2023-04-25T07:26:13;10.90;99.90
24035;DHT22;12242;50.952;4.678;2023-04-25T07:28:41;11.40;99.90
24035;DHT22;12242;50.952;4.678;2023-04-25T07:31:08;11.40;99.90
24035;DHT22;12242;50.952;4.678;2023-04-25T07:33:36;11.30;99.90
24035;DHT22;12242;50.952;4.678;2023-04-25T07:36:04;11.70;99.90
24035;DHT22;12242;50.952;4.678;2023-04-25T07:38:31;12.10;99.90
24035;DHT22;12242;50.952;4.678;2023-04-25T07:41:00;11.60;99.90
24035;DHT22;12242;50.952;4.678;2023-04-25T07:43:27;11.40;99.90
24035;DHT22;12242;50.952;4.678;2023-04-25T07:45:56;11.10;99.90
24035;DHT22;12242;50.952;4.678;2023-04-25T07:48:24;11.10;99.90
24035;DHT22;12242;50.952;4.678;2023-04-25T07:50:52;11.20;99.90
24035;DHT22;12242;50.952;4.678;2023-04-25T07:53:19;11.30;99.90
24035;DHT22;12242;50.952;4.678;2023-04-25T07:55:47;11.60;99.90
24035;DHT22;12242;50.952;4.678;2023-04-25T07:58:15;11.60;99.90
24035;DHT22;12242;50.952;4.678;2023-04-25T08:00:48;11.50;99.90
24035;DHT22;12242;50.952;4.678;2023-04-25T08:03:16;11.20;99.90
24035;DHT22;12242;50.952;4.678;2023-04-25T08:05:44;10.80;99.90
24035;DHT22;12242;50.952;4.678;2023-04-25T08:08:13;10.50;99.90
24035;DHT22;12242;50.952;4.678;2023-04-25T08:10:41;10.40;99.90
24035;DHT22;12242;50.952;4.678;2023-04-25T08:13:09;10.40;99.90
24035;DHT22;12242;50.952;4.678;2023-04-25T08:15:37;10.50;99.90
24035;DHT22;12242;50.952;4.678;2023-04-25T08:18:04;10.40;99.90
24035;DHT22;12242;50.952;4.678;2023-04-25T08:20:32;10.10;99.90
24035;DHT22;12242;50.952;4.678;2023-04-25T08:23:00;10.20;99.90
24035;DHT22;12242;50.952;4.678;2023-04-25T08:25:27;10.20;99.90
24035;DHT22;12242;50.952;4.678;2023-04-25T08:27:55;10.40;99.90
24035;DHT22;12242;50.952;4.678;2023-04-25T08:30:24;10.50;99.90
24035;DHT22;12242;50.952;4.678;2023-04-25T08:32:51;10.80;99.90
24035;DHT22;12242;50.952;4.678;2023-04-25T08:35:20;11.00;99.90
24035;DHT22;12242;50.952;4.678;2023-04-25T08:37:47;11.60;99.90
24035;DHT22;12242;50.952;4.678;2023-04-25T08:40:16;12.20;99.90
24035;DHT22;12242;50.952;4.678;2023-04-25T08:42:44;12.90;99.90
24035;DHT22;12242;50.952;4.678;2023-04-25T08:45:13;13.30;99.90
24035;DHT22;12242;50.952;4.678;2023-04-25T08:47:41;12.90;99.90
24035;DHT22;12242;50.952;4.678;2023-04-25T08:50:09;13.40;99.90
24035;DHT22;12242;50.952;4.678;2023-04-25T08:52:43;15.60;99.90
24035;DHT22;12242;50.952;4.678;2023-04-25T08:55:12;18.10;95.70
24035;DHT22;12242;50.952;4.678;2023-04-25T08:57:43;19.70;92.30
24035;DHT22;12242;50.952;4.678;2023-04-25T09:00:12;20.70;83.60
24035;DHT22;12242;50.952;4.678;2023-04-25T09:02:42;22.30;81.10
24035;DHT22;12242;50.952;4.678;2023-04-25T09:05:12;22.20;81.20
24035;DHT22;12242;50.952;4.678;2023-04-25T09:07:40;19.90;81.40
24035;DHT22;12242;50.952;4.678;2023-04-25T09:10:08;17.90;84.10
24035;DHT22;12242;50.952;4.678;2023-04-25T09:12:36;15.90;89.20
24035;DHT22;12242;50.952;4.678;2023-04-25T09:15:06;14.40;91.50
24035;DHT22;12242;50.952;4.678;2023-04-25T09:17:34;13.40;94.60
24035;DHT22;12242;50.952;4.678;2023-04-25T09:20:09;12.40;96.70
24035;DHT22;12242;50.952;4.678;2023-04-25T09:22:38;11.60;99.10
24035;DHT22;12242;50.952;4.678;2023-04-25T09:25:10;11.30;99.90
24035;DHT22;12242;50.952;4.678;2023-04-25T09:27:58;11.00;99.90
24035;DHT22;12242;50.952;4.678;2023-04-25T09:30:31;11.10;99.90
24035;DHT22;12242;50.952;4.678;2023-04-25T09:33:06;11.20;99.90
24035;DHT22;12242;50.952;4.678;2023-04-25T09:35:44;11.40;99.90
24035;DHT22;12242;50.952;4.678;2023-04-25T09:38:14;11.00;99.90
24035;DHT22;12242;50.952;4.678;2023-04-25T09:40:46;11.10;99.90
24035;DHT22;12242;50.952;4.678;2023-04-25T09:43:21;11.60;99.90
24035;DHT22;12242;50.952;4.678;2023-04-25T09:45:50;11.90;99.90
24035;DHT22;12242;50.952;4.678;2023-04-25T09:48:26;12.70;99.90
24035;DHT22;12242;50.952;4.678;2023-04-25T09:51:14;15.10;96.60
24035;DHT22;12242;50.952;4.678;2023-04-25T09:53:46;18.00;90.10
24035;DHT22;12242;50.952;4.678;2023-04-25T09:56:20;18.50;83.50
24035;DHT22;12242;50.952;4.678;2023-04-25T09:58:49;20.00;85.00
24035;DHT22;12242;50.952;4.678;2023-04-25T10:01:17;20.30;75.90
24035;DHT22;12242;50.952;4.678;2023-04-25T10:03:49;20.50;78.50
24035;DHT22;12242;50.952;4.678;2023-04-25T10:06:19;22.00;71.40
24035;DHT22;12242;50.952;4.678;2023-04-25T10:08:51;21.90;71.30
24035;DHT22;12242;50.952;4.678;2023-04-25T10:11:21;22.40;68.20
24035;DHT22;12242;50.952;4.678;2023-04-25T10:13:50;21.40;66.50
24035;DHT22;12242;50.952;4.678;2023-04-25T10:16:19;20.10;68.40
24035;DHT22;12242;50.952;4.678;2023-04-25T10:18:48;21.00;65.70
24035;DHT22;12242;50.952;4.678;2023-04-25T10:21:17;21.30;67.60
24035;DHT22;12242;50.952;4.678;2023-04-25T10:23:47;20.50;66.30
24035;DHT22;12242;50.952;4.678;2023-04-25T10:26:16;19.70;69.20
24035;DHT22;12242;50.952;4.678;2023-04-25T10:28:58;19.80;70.10
24035;DHT22;12242;50.952;4.678;2023-04-25T10:31:26;19.80;67.20
24035;DHT22;12242;50.952;4.678;2023-04-25T10:33:54;18.80;68.90
24035;DHT22;12242;50.952;4.678;2023-04-25T10:36:22;18.00;71.10
24035;DHT22;12242;50.952;4.678;2023-04-25T10:38:51;18.10;74.70
24035;DHT22;12242;50.952;4.678;2023-04-25T10:41:21;18.10;72.40
24035;DHT22;12242;50.952;4.678;2023-04-25T10:43:59;19.30;75.40
24035;DHT22;12242;50.952;4.678;2023-04-25T10:46:29;20.10;71.90
24035;DHT22;12242;50.952;4.678;2023-04-25T10:49:02;18.50;71.40
24035;DHT22;12242;50.952;4.678;2023-04-25T10:51:34;16.50;77.40
24035;DHT22;12242;50.952;4.678;2023-04-25T10:54:06;15.80;75.80
24035;DHT22;12242;50.952;4.678;2023-04-25T10:56:38;14.90;78.70
24035;DHT22;12242;50.952;4.678;2023-04-25T10:59:16;14.50;83.60
24035;DHT22;12242;50.952;4.678;2023-04-25T11:01:46;14.20;84.60
24035;DHT22;12242;50.952;4.678;2023-04-25T11:09:38;13.60;91.50
24035;DHT22;12242;50.952;4.678;2023-04-25T11:12:08;13.60;90.90
24035;DHT22;12242;50.952;4.678;2023-04-25T11:14:36;13.50;90.90
24035;DHT22;12242;50.952;4.678;2023-04-25T11:17:04;13.50;91.30
24035;DHT22;12242;50.952;4.678;2023-04-25T11:19:33;13.80;91.50
24035;DHT22;12242;50.952;4.678;2023-04-25T11:22:02;14.10;88.50
24035;DHT22;12242;50.952;4.678;2023-04-25T11:24:32;14.40;81.10
24035;DHT22;12242;50.952;4.678;2023-04-25T11:27:02;14.70;84.00
24035;DHT22;12242;50.952;4.678;2023-04-25T11:29:32;15.40;81.50
24035;DHT22;12242;50.952;4.678;2023-04-25T11:32:00;16.90;78.40
24035;DHT22;12242;50.952;4.678;2023-04-25T11:34:29;17.40;76.20
24035;DHT22;12242;50.952;4.678;2023-04-25T11:37:01;17.60;77.60
24035;DHT22;12242;50.952;4.678;2023-04-25T11:39:29;17.20;77.00
24035;DHT22;12242;50.952;4.678;2023-04-25T11:41:57;16.60;81.00
24035;DHT22;12242;50.952;4.678;2023-04-25T11:44:26;15.40;84.20
24035;DHT22;12242;50.952;4.678;2023-04-25T11:46:53;14.80;85.70
24035;DHT22;12242;50.952;4.678;2023-04-25T11:49:21;14.30;88.00
24035;DHT22;12242;50.952;4.678;2023-04-25T11:51:49;13.60;88.40
24035;DHT22;12242;50.952;4.678;2023-04-25T11:54:16;13.40;90.30
24035;DHT22;12242;50.952;4.678;2023-04-25T11:56:45;13.40;88.10
24035;DHT22;12242;50.952;4.678;2023-04-25T11:59:13;13.30;87.90
24035;DHT22;12242;50.952;4.678;2023-04-25T12:01:48;13.00;86.60
24035;DHT22;12242;50.952;4.678;2023-04-25T12:04:23;13.20;90.30
24035;DHT22;12242;50.952;4.678;2023-04-25T12:06:53;13.70;88.60
24035;DHT22;12242;50.952;4.678;2023-04-25T12:09:31;13.00;83.10
24035;DHT22;12242;50.952;4.678;2023-04-25T12:12:00;12.80;83.30
24035;DHT22;12242;50.952;4.678;2023-04-25T12:14:33;13.30;85.50
24035;DHT22;12242;50.952;4.678;2023-04-25T12:17:03;13.40;86.10
24035;DHT22;12242;50.952;4.678;2023-04-25T12:19:35;13.60;86.00
24035;DHT22;12242;50.952;4.678;2023-04-25T12:22:10;13.90;86.60
24035;DHT22;12242;50.952;4.678;2023-04-25T12:24:45;14.40;85.70
24035;DHT22;12242;50.952;4.678;2023-04-25T12:27:15;14.70;85.00
24035;DHT22;12242;50.952;4.678;2023-04-25T12:29:51;14.10;80.30
24035;DHT22;12242;50.952;4.678;2023-04-25T12:32:19;14.50;79.80
24035;DHT22;12242;50.952;4.678;2023-04-25T12:34:46;15.00;82.00
24035;DHT22;12242;50.952;4.678;2023-04-25T12:37:14;14.80;78.60
24035;DHT22;12242;50.952;4.678;2023-04-25T12:39:43;15.00;77.60
24035;DHT22;12242;50.952;4.678;2023-04-25T12:42:11;14.90;76.00
24035;DHT22;12242;50.952;4.678;2023-04-25T12:44:41;15.00;82.30
24035;DHT22;12242;50.952;4.678;2023-04-25T12:47:09;14.50;81.50
24035;DHT22;12242;50.952;4.678;2023-04-25T12:49:37;14.30;83.80
24035;DHT22;12242;50.952;4.678;2023-04-25T12:52:04;14.20;84.60
24035;DHT22;12242;50.952;4.678;2023-04-25T12:54:32;14.10;83.40
24035;DHT22;12242;50.952;4.678;2023-04-25T12:56:59;13.90;81.80
24035;DHT22;12242;50.952;4.678;2023-04-25T12:59:30;13.60;89.10
24035;DHT22;12242;50.952;4.678;2023-04-25T13:01:58;13.00;90.80
24035;DHT22;12242;50.952;4.678;2023-04-25T13:04:25;12.90;91.30
24035;DHT22;12242;50.952;4.678;2023-04-25T13:06:53;12.70;91.00
24035;DHT22;12242;50.952;4.678;2023-04-25T13:09:21;12.90;92.00
24035;DHT22;12242;50.952;4.678;2023-04-25T13:11:48;13.00;90.80
24035;DHT22;12242;50.952;4.678;2023-04-25T13:14:16;13.40;91.40
24035;DHT22;12242;50.952;4.678;2023-04-25T13:16:44;13.90;90.00
24035;DHT22;12242;50.952;4.678;2023-04-25T13:19:12;14.00;89.80
24035;DHT22;12242;50.952;4.678;2023-04-25T13:21:39;14.00;90.20
24035;DHT22;12242;50.952;4.678;2023-04-25T13:24:07;13.90;85.10
24035;DHT22;12242;50.952;4.678;2023-04-25T13:26:34;13.50;86.80
24035;DHT22;12242;50.952;4.678;2023-04-25T13:29:03;13.50;86.60
24035;DHT22;12242;50.952;4.678;2023-04-25T13:31:31;13.40;87.80
24035;DHT22;12242;50.952;4.678;2023-04-25T13:33:59;13.40;86.70
24035;DHT22;12242;50.952;4.678;2023-04-25T13:36:27;13.70;88.90
24035;DHT22;12242;50.952;4.678;2023-04-25T13:38:55;13.90;86.90
24035;DHT22;12242;50.952;4.678;2023-04-25T13:41:22;13.90;87.50
24035;DHT22;12242;50.952;4.678;2023-04-25T13:43:50;13.70;87.20
24035;DHT22;12242;50.952;4.678;2023-04-25T13:46:18;13.90;89.10
24035;DHT22;12242;50.952;4.678;2023-04-25T13:49:07;13.80;87.30
24035;DHT22;12242;50.952;4.678;2023-04-25T13:51:39;13.70;85.80
24035;DHT22;12242;50.952;4.678;2023-04-25T13:54:07;13.30;83.50
24035;DHT22;12242;50.952;4.678;2023-04-25T13:56:35;13.10;83.40
24035;DHT22;12242;50.952;4.678;2023-04-25T13:59:02;13.20;85.60
24035;DHT22;12242;50.952;4.678;2023-04-25T14:01:30;13.50;89.50
24035;DHT22;12242;50.952;4.678;2023-04-25T14:03:58;13.70;86.40
24035;DHT22;12242;50.952;4.678;2023-04-25T14:06:26;13.80;84.60
24035;DHT22;12242;50.952;4.678;2023-04-25T14:08:54;14.20;89.40
24035;DHT22;12242;50.952;4.678;2023-04-25T14:11:22;14.50;87.00
24035;DHT22;12242;50.952;4.678;2023-04-25T14:13:49;14.90;83.90
24035;DHT22;12242;50.952;4.678;2023-04-25T14:16:17;14.90;85.60
24035;DHT22;12242;50.952;4.678;2023-04-25T14:18:45;14.60;84.00
24035;DHT22;12242;50.952;4.678;2023-04-25T14:21:12;14.60;85.50
24035;DHT22;12242;50.952;4.678;2023-04-25T14:23:40;14.50;86.40
24035;DHT22;12242;50.952;4.678;2023-04-25T14:26:07;14.40;84.10
24035;DHT22;12242;50.952;4.678;2023-04-25T14:28:39;14.20;82.90
24035;DHT22;12242;50.952;4.678;2023-04-25T14:31:06;14.00;86.20
24035;DHT22;12242;50.952;4.678;2023-04-25T14:33:34;13.80;85.70
24035;DHT22;12242;50.952;4.678;2023-04-25T14:36:02;13.60;85.90
24035;DHT22;12242;50.952;4.678;2023-04-25T14:38:30;13.40;83.40
24035;DHT22;12242;50.952;4.678;2023-04-25T14:40:58;13.20;85.30
24035;DHT22;12242;50.952;4.678;2023-04-25T14:43:25;13.10;88.00
24035;DHT22;12242;50.952;4.678;2023-04-25T14:45:53;13.00;88.60
24035;DHT22;12242;50.952;4.678;2023-04-25T14:48:24;13.00;87.90
24035;DHT22;12242;50.952;4.678;2023-04-25T14:50:52;12.90;90.40
24035;DHT22;12242;50.952;4.678;2023-04-25T14:53:20;12.90;89.40
24035;DHT22;12242;50.952;4.678;2023-04-25T14:55:48;12.70;89.40
24035;DHT22;12242;50.952;4.678;2023-04-25T14:58:17;12.90;91.10
24035;DHT22;12242;50.952;4.678;2023-04-25T15:00:46;12.80;89.70
24035;DHT22;12242;50.952;4.678;2023-04-25T15:03:14;12.90;90.20
24035;DHT22;12242;50.952;4.678;2023-04-25T15:05:43;12.70;88.80
24035;DHT22;12242;50.952;4.678;2023-04-25T15:08:11;12.80;88.40
24035;DHT22;12242;50.952;4.678;2023-04-25T15:10:39;12.70;86.20
24035;DHT22;12242;50.952;4.678;2023-04-25T15:13:07;12.80;88.70
24035;DHT22;12242;50.952;4.678;2023-04-25T15:15:34;12.90;88.50
24035;DHT22;12242;50.952;4.678;2023-04-25T15:18:02;12.70;87.30
24035;DHT22;12242;50.952;4.678;2023-04-25T15:20:30;12.70;88.50
24035;DHT22;12242;50.952;4.678;2023-04-25T15:22:58;12.70;90.20
24035;DHT22;12242;50.952;4.678;2023-04-25T15:25:25;12.80;90.90
24035;DHT22;12242;50.952;4.678;2023-04-25T15:27:53;12.80;90.00
24035;DHT22;12242;50.952;4.678;2023-04-25T15:30:22;12.70;88.80
24035;DHT22;12242;50.952;4.678;2023-04-25T15:32:49;12.60;89.10
24035;DHT22;12242;50.952;4.678;2023-04-25T15:35:17;12.30;88.70
24035;DHT22;12242;50.952;4.678;2023-04-25T15:37:45;12.00;90.30
24035;DHT22;12242;50.952;4.678;2023-04-25T15:40:15;11.90;90.80
24035;DHT22;12242;50.952;4.678;2023-04-25T15:42:48;11.80;89.40
24035;DHT22;12242;50.952;4.678;2023-04-25T15:45:20;11.70;90.30
24035;DHT22;12242;50.952;4.678;2023-04-25T15:47:49;11.70;90.90
24035;DHT22;12242;50.952;4.678;2023-04-25T15:50:20;11.60;89.70